createdAt,value
2017-06-17T00:00:45.533Z,568
2017-06-17T00:01:48.508Z,464
2017-06-17T00:02:50.894Z,428
2017-06-17T00:03:53.254Z,332
2017-06-17T00:04:55.619Z,280
2017-06-17T00:05:57.974Z,232
2017-06-17T00:07:01.036Z,200
2017-06-17T00:08:04.596Z,168
2017-06-17T00:09:06.958Z,128
2017-06-17T00:10:09.325Z,92
2017-06-17T00:11:11.688Z,76
2017-06-17T00:12:14.656Z,64
2017-06-17T00:13:17.019Z,52
2017-06-17T00:14:19.377Z,40
2017-06-17T00:15:21.742Z,40
2017-06-17T00:16:24.098Z,24
2017-06-17T00:17:28.978Z,20
2017-06-17T00:18:31.332Z,16
2017-06-17T00:19:33.689Z,8
2017-06-17T00:20:36.069Z,8
2017-06-17T00:21:38.418Z,4
2017-06-17T00:22:41.378Z,4
2017-06-17T00:23:43.736Z,4
2017-06-17T00:24:46.107Z,4
2017-06-17T00:25:48.457Z,0
2017-06-17T00:26:50.814Z,4
2017-06-17T00:27:53.784Z,0
2017-06-17T00:28:56.179Z,0
2017-06-17T00:29:58.539Z,0
2017-06-17T00:31:00.906Z,0
2017-06-17T00:32:03.286Z,0
2017-06-17T00:33:06.273Z,0
2017-06-17T00:34:08.644Z,0
2017-06-17T00:35:11.002Z,0
2017-06-17T00:36:13.378Z,0
2017-06-17T00:37:15.723Z,0
2017-06-17T00:38:18.686Z,0
2017-06-17T00:39:21.055Z,0
2017-06-17T00:40:23.408Z,0
2017-06-17T00:41:25.774Z,0
2017-06-17T00:42:28.134Z,0
2017-06-17T00:43:31.129Z,0
2017-06-17T00:44:33.484Z,0
2017-06-17T00:45:35.871Z,0
2017-06-17T00:46:38.265Z,0
2017-06-17T00:47:40.653Z,0
2017-06-17T00:48:43.630Z,0
2017-06-17T00:49:46.006Z,0
2017-06-17T00:50:48.376Z,0
2017-06-17T00:51:50.730Z,0
2017-06-17T00:52:53.093Z,0
2017-06-17T00:53:56.072Z,0
2017-06-17T00:54:58.437Z,0
2017-06-17T00:56:00.803Z,0
2017-06-17T00:57:03.170Z,0
2017-06-17T00:58:05.534Z,0
2017-06-17T00:59:08.488Z,0
2017-06-17T01:00:10.853Z,0
2017-06-17T01:01:13.217Z,0
2017-06-17T01:02:15.598Z,0
2017-06-17T01:03:17.985Z,0
2017-06-17T01:04:20.969Z,0
2017-06-17T01:05:23.345Z,0
2017-06-17T01:06:25.725Z,0
2017-06-17T01:07:28.082Z,0
2017-06-17T01:08:30.470Z,0
2017-06-17T01:09:33.419Z,0
2017-06-17T01:10:35.786Z,0
2017-06-17T01:11:38.153Z,0
2017-06-17T01:12:40.542Z,0
2017-06-17T01:13:42.896Z,0
2017-06-17T01:14:45.888Z,0
2017-06-17T01:15:48.259Z,0
2017-06-17T01:16:50.640Z,0
2017-06-17T01:17:53.000Z,0
2017-06-17T01:18:55.359Z,0
2017-06-17T01:19:58.343Z,0
2017-06-17T01:21:00.704Z,0
2017-06-17T01:22:03.054Z,0
2017-06-17T01:23:05.419Z,0
2017-06-17T01:24:07.781Z,0
2017-06-17T01:25:10.757Z,0
2017-06-17T01:26:13.134Z,0
2017-06-17T01:27:15.519Z,0
2017-06-17T01:28:17.873Z,0
2017-06-17T01:29:20.233Z,0
2017-06-17T01:30:23.146Z,0
2017-06-17T01:31:25.505Z,0
2017-06-17T01:32:27.854Z,0
2017-06-17T01:33:30.232Z,0
2017-06-17T01:34:32.597Z,0
2017-06-17T01:35:35.555Z,0
2017-06-17T01:36:37.940Z,0
2017-06-17T01:37:40.318Z,0
2017-06-17T01:38:42.675Z,0
2017-06-17T01:39:45.036Z,0
2017-06-17T01:40:47.996Z,0
2017-06-17T01:41:50.348Z,0
2017-06-17T01:42:52.707Z,0
2017-06-17T01:43:55.084Z,0
2017-06-17T01:44:57.473Z,0
2017-06-17T01:46:00.435Z,0
2017-06-17T01:47:02.832Z,0
2017-06-17T01:48:05.197Z,0
2017-06-17T01:49:07.553Z,0
2017-06-17T01:50:09.941Z,0
2017-06-17T01:51:12.899Z,0
2017-06-17T01:52:15.263Z,0
2017-06-17T01:53:17.634Z,0
2017-06-17T01:54:19.999Z,0
2017-06-17T01:55:22.360Z,0
2017-06-17T01:56:25.326Z,0
2017-06-17T01:57:27.704Z,0
2017-06-17T01:58:30.096Z,0
2017-06-17T01:59:32.432Z,0
2017-06-17T02:00:34.815Z,0
2017-06-17T02:01:37.789Z,0
2017-06-17T02:02:40.163Z,0
2017-06-17T02:03:42.543Z,0
2017-06-17T02:04:44.905Z,0
2017-06-17T02:05:47.295Z,0
2017-06-17T02:06:50.276Z,0
2017-06-17T02:07:52.637Z,0
2017-06-17T02:08:54.993Z,0
2017-06-17T02:09:57.356Z,0
2017-06-17T02:10:59.712Z,0
2017-06-17T02:12:02.683Z,0
2017-06-17T02:13:05.049Z,0
2017-06-17T02:14:07.407Z,0
2017-06-17T02:15:09.881Z,0
2017-06-17T02:16:12.455Z,0
2017-06-17T02:17:15.533Z,0
2017-06-17T02:18:18.035Z,0
2017-06-17T02:19:20.535Z,0
2017-06-17T02:20:22.999Z,0
2017-06-17T02:21:26.697Z,0
2017-06-17T02:22:29.702Z,0
2017-06-17T02:23:32.057Z,0
2017-06-17T02:24:34.422Z,0
2017-06-17T02:25:37.408Z,0
2017-06-17T02:26:40.387Z,0
2017-06-17T02:27:43.912Z,0
2017-06-17T02:28:46.133Z,0
2017-06-17T02:29:48.725Z,0
2017-06-17T02:30:51.319Z,0
2017-06-17T02:31:53.772Z,0
2017-06-17T02:32:56.809Z,0
2017-06-17T02:33:59.182Z,0
2017-06-17T02:35:01.695Z,0
2017-06-17T02:36:04.126Z,0
2017-06-17T02:37:06.534Z,0
2017-06-17T02:38:09.477Z,0
2017-06-17T02:39:12.134Z,0
2017-06-17T02:40:14.397Z,0
2017-06-17T02:41:17.272Z,0
2017-06-17T02:42:19.802Z,0
2017-06-17T02:43:23.094Z,0
2017-06-17T02:44:25.586Z,0
2017-06-17T02:45:28.090Z,0
2017-06-17T02:46:30.681Z,0
2017-06-17T02:47:33.002Z,0
2017-06-17T02:48:36.598Z,0
2017-06-17T02:49:39.051Z,0
2017-06-17T02:50:41.411Z,0
2017-06-17T02:51:43.815Z,0
2017-06-17T02:52:46.624Z,0
2017-06-17T02:53:49.669Z,0
2017-06-17T02:54:52.033Z,0
2017-06-17T02:55:54.421Z,0
2017-06-17T02:56:56.843Z,0
2017-06-17T02:57:59.464Z,0
2017-06-17T02:59:02.331Z,0
2017-06-17T03:00:04.697Z,0
2017-06-17T03:01:07.033Z,0
2017-06-17T03:02:09.685Z,0
2017-06-17T03:03:12.062Z,0
2017-06-17T03:04:15.671Z,0
2017-06-17T03:05:18.062Z,0
2017-06-17T03:06:20.623Z,0
2017-06-17T03:07:23.132Z,0
2017-06-17T03:08:25.490Z,0
2017-06-17T03:09:28.734Z,0
2017-06-17T03:10:31.238Z,0
2017-06-17T03:11:33.571Z,0
2017-06-17T03:12:35.994Z,0
2017-06-17T03:13:38.381Z,0
2017-06-17T03:14:41.713Z,0
2017-06-17T03:15:44.696Z,0
2017-06-17T03:16:46.960Z,0
2017-06-17T03:17:49.302Z,0
2017-06-17T03:18:51.742Z,0
2017-06-17T03:19:55.755Z,0
2017-06-17T03:20:58.680Z,0
2017-06-17T03:22:01.186Z,0
2017-06-17T03:23:04.023Z,0
2017-06-17T03:24:06.235Z,0
2017-06-17T03:25:09.189Z,0
2017-06-17T03:26:11.546Z,0
2017-06-17T03:27:14.121Z,0
2017-06-17T03:28:16.484Z,0
2017-06-17T03:29:18.838Z,0
2017-06-17T03:30:21.798Z,0
2017-06-17T03:31:24.157Z,0
2017-06-17T03:32:26.521Z,0
2017-06-17T03:33:28.887Z,0
2017-06-17T03:34:31.247Z,0
2017-06-17T03:35:34.198Z,0
2017-06-17T03:36:36.587Z,0
2017-06-17T03:37:38.943Z,0
2017-06-17T03:38:41.298Z,0
2017-06-17T03:39:43.669Z,0
2017-06-17T03:40:46.639Z,0
2017-06-17T03:41:49.001Z,0
2017-06-17T03:42:51.365Z,0
2017-06-17T03:43:53.735Z,0
2017-06-17T03:44:56.116Z,0
2017-06-17T03:45:59.087Z,0
2017-06-17T03:47:01.446Z,0
2017-06-17T03:48:03.806Z,0
2017-06-17T03:49:06.362Z,0
2017-06-17T03:50:08.729Z,0
2017-06-17T03:51:13.597Z,0
2017-06-17T03:52:15.956Z,0
2017-06-17T03:53:18.315Z,0
2017-06-17T03:54:20.683Z,0
2017-06-17T03:55:23.051Z,0
2017-06-17T03:56:26.034Z,0
2017-06-17T03:57:28.421Z,0
2017-06-17T03:58:30.784Z,0
2017-06-17T03:59:33.148Z,0
2017-06-17T04:00:35.520Z,0
2017-06-17T04:01:38.481Z,0
2017-06-17T04:02:40.852Z,0
2017-06-17T04:03:43.234Z,0
2017-06-17T04:04:45.597Z,0
2017-06-17T04:05:47.966Z,0
2017-06-17T04:06:50.923Z,0
2017-06-17T04:07:53.324Z,0
2017-06-17T04:08:55.682Z,0
2017-06-17T04:09:58.046Z,0
2017-06-17T04:11:00.410Z,0
2017-06-17T04:12:03.369Z,0
2017-06-17T04:13:05.726Z,0
2017-06-17T04:14:08.083Z,0
2017-06-17T04:15:10.463Z,0
2017-06-17T04:16:12.813Z,0
2017-06-17T04:17:15.727Z,0
2017-06-17T04:18:18.097Z,0
2017-06-17T04:19:20.451Z,0
2017-06-17T04:20:22.820Z,0
2017-06-17T04:21:25.207Z,0
2017-06-17T04:22:28.160Z,0
2017-06-17T04:23:30.535Z,0
2017-06-17T04:24:32.921Z,0
2017-06-17T04:25:35.280Z,0
2017-06-17T04:26:37.638Z,0
2017-06-17T04:27:40.812Z,0
2017-06-17T04:28:43.181Z,0
2017-06-17T04:29:45.544Z,0
2017-06-17T04:30:47.928Z,0
2017-06-17T04:31:50.283Z,0
2017-06-17T04:32:53.246Z,0
2017-06-17T04:33:55.603Z,0
2017-06-17T04:34:57.971Z,0
2017-06-17T04:36:00.327Z,0
2017-06-17T04:37:02.687Z,0
2017-06-17T04:38:05.658Z,0
2017-06-17T04:39:08.028Z,0
2017-06-17T04:40:10.387Z,0
2017-06-17T04:41:12.750Z,0
2017-06-17T04:42:15.303Z,0
2017-06-17T04:43:18.270Z,0
2017-06-17T04:44:20.630Z,0
2017-06-17T04:45:23.005Z,0
2017-06-17T04:46:25.384Z,0
2017-06-17T04:47:27.740Z,0
2017-06-17T04:48:30.720Z,0
2017-06-17T04:49:33.076Z,0
2017-06-17T04:50:35.436Z,0
2017-06-17T04:51:37.788Z,0
2017-06-17T04:52:40.151Z,0
2017-06-17T04:53:43.127Z,0
2017-06-17T04:54:45.498Z,0
2017-06-17T04:55:47.861Z,0
2017-06-17T04:56:50.215Z,0
2017-06-17T04:57:52.577Z,0
2017-06-17T04:58:55.546Z,0
2017-06-17T04:59:57.897Z,0
2017-06-17T05:01:00.477Z,0
2017-06-17T05:02:02.829Z,0
2017-06-17T05:03:05.193Z,0
2017-06-17T05:04:08.160Z,0
2017-06-17T05:05:10.516Z,0
2017-06-17T05:06:12.913Z,0
2017-06-17T05:07:15.274Z,0
2017-06-17T05:08:17.638Z,0
2017-06-17T05:09:20.623Z,0
2017-06-17T05:10:22.977Z,0
2017-06-17T05:11:25.333Z,0
2017-06-17T05:12:27.918Z,0
2017-06-17T05:13:30.287Z,0
2017-06-17T05:14:33.243Z,0
2017-06-17T05:15:36.795Z,0
2017-06-17T05:16:39.154Z,0
2017-06-17T05:17:41.519Z,0
2017-06-17T05:18:43.874Z,0
2017-06-17T05:19:46.784Z,0
2017-06-17T05:20:49.157Z,0
2017-06-17T05:21:51.506Z,0
2017-06-17T05:22:54.099Z,0
2017-06-17T05:23:56.456Z,0
2017-06-17T05:24:59.423Z,0
2017-06-17T05:26:01.783Z,0
2017-06-17T05:27:04.169Z,0
2017-06-17T05:28:06.546Z,0
2017-06-17T05:29:08.909Z,0
2017-06-17T05:30:11.876Z,0
2017-06-17T05:31:14.258Z,0
2017-06-17T05:32:16.622Z,0
2017-06-17T05:33:18.986Z,0
2017-06-17T05:34:21.361Z,0
2017-06-17T05:35:24.319Z,0
2017-06-17T05:36:26.690Z,0
2017-06-17T05:37:29.046Z,0
2017-06-17T05:38:31.398Z,0
2017-06-17T05:39:33.767Z,0
2017-06-17T05:40:36.749Z,0
2017-06-17T05:41:39.106Z,0
2017-06-17T05:42:41.473Z,0
2017-06-17T05:43:43.828Z,0
2017-06-17T05:44:46.191Z,0
2017-06-17T05:45:49.151Z,0
2017-06-17T05:46:51.521Z,0
2017-06-17T05:47:53.888Z,0
2017-06-17T05:48:56.254Z,0
2017-06-17T05:49:58.610Z,0
2017-06-17T05:51:03.475Z,0
2017-06-17T05:52:05.834Z,0
2017-06-17T05:53:08.200Z,0
2017-06-17T05:54:10.560Z,0
2017-06-17T05:55:12.927Z,0
2017-06-17T05:56:15.886Z,0
2017-06-17T05:57:18.246Z,0
2017-06-17T05:58:20.600Z,0
2017-06-17T05:59:22.961Z,0
2017-06-17T06:00:25.319Z,0
2017-06-17T06:01:28.290Z,0
2017-06-17T06:02:30.648Z,0
2017-06-17T06:03:33.008Z,0
2017-06-17T06:04:35.384Z,0
2017-06-17T06:05:37.743Z,0
2017-06-17T06:06:40.708Z,0
2017-06-17T06:07:43.086Z,0
2017-06-17T06:08:45.448Z,0
2017-06-17T06:09:47.827Z,0
2017-06-17T06:10:50.190Z,0
2017-06-17T06:11:53.144Z,0
2017-06-17T06:12:55.536Z,0
2017-06-17T06:13:57.867Z,0
2017-06-17T06:15:00.229Z,0
2017-06-17T06:16:02.585Z,0
2017-06-17T06:17:05.537Z,0
2017-06-17T06:18:07.906Z,0
2017-06-17T06:19:10.277Z,0
2017-06-17T06:20:12.632Z,0
2017-06-17T06:21:14.998Z,0
2017-06-17T06:22:18.069Z,0
2017-06-17T06:23:20.435Z,0
2017-06-17T06:24:22.792Z,0
2017-06-17T06:25:25.151Z,0
2017-06-17T06:26:27.519Z,0
2017-06-17T06:27:30.482Z,0
2017-06-17T06:28:32.845Z,0
2017-06-17T06:29:35.215Z,0
2017-06-17T06:30:37.577Z,0
2017-06-17T06:31:39.943Z,0
2017-06-17T06:32:42.905Z,0
2017-06-17T06:33:45.265Z,0
2017-06-17T06:34:47.634Z,0
2017-06-17T06:35:50.188Z,0
2017-06-17T06:36:52.544Z,0
2017-06-17T06:37:55.515Z,0
2017-06-17T06:38:57.876Z,0
2017-06-17T06:40:00.236Z,0
2017-06-17T06:41:02.617Z,0
2017-06-17T06:42:04.975Z,0
2017-06-17T06:43:07.943Z,0
2017-06-17T06:44:10.302Z,0
2017-06-17T06:45:12.658Z,0
2017-06-17T06:46:15.021Z,0
2017-06-17T06:47:17.387Z,0
2017-06-17T06:48:20.349Z,0
2017-06-17T06:49:22.716Z,0
2017-06-17T06:50:25.087Z,0
2017-06-17T06:51:27.451Z,0
2017-06-17T06:52:29.800Z,0
2017-06-17T06:53:32.765Z,0
2017-06-17T06:54:35.142Z,0
2017-06-17T06:55:37.499Z,0
2017-06-17T06:56:39.857Z,0
2017-06-17T06:57:42.224Z,0
2017-06-17T06:58:45.188Z,0
2017-06-17T06:59:47.550Z,0
2017-06-17T07:00:49.915Z,0
2017-06-17T07:01:52.285Z,0
2017-06-17T07:02:54.645Z,0
2017-06-17T07:03:57.605Z,0
2017-06-17T07:04:59.960Z,0
2017-06-17T07:06:02.340Z,0
2017-06-17T07:07:04.698Z,0
2017-06-17T07:08:07.058Z,0
2017-06-17T07:09:10.025Z,0
2017-06-17T07:10:12.386Z,0
2017-06-17T07:11:14.749Z,0
2017-06-17T07:12:17.096Z,0
2017-06-17T07:13:19.470Z,0
2017-06-17T07:14:22.439Z,0
2017-06-17T07:15:24.804Z,0
2017-06-17T07:16:27.169Z,0
2017-06-17T07:17:29.523Z,0
2017-06-17T07:18:31.885Z,0
2017-06-17T07:19:34.848Z,0
2017-06-17T07:20:37.209Z,0
2017-06-17T07:21:39.567Z,0
2017-06-17T07:22:41.923Z,0
2017-06-17T07:23:44.291Z,0
2017-06-17T07:24:47.252Z,0
2017-06-17T07:25:49.607Z,0
2017-06-17T07:26:51.974Z,0
2017-06-17T07:27:54.341Z,0
2017-06-17T07:28:56.697Z,0
2017-06-17T07:29:59.657Z,0
2017-06-17T07:31:02.014Z,0
2017-06-17T07:32:04.379Z,0
2017-06-17T07:33:06.731Z,0
2017-06-17T07:34:09.081Z,0
2017-06-17T07:35:12.054Z,0
2017-06-17T07:36:14.450Z,0
2017-06-17T07:37:16.809Z,0
2017-06-17T07:38:19.165Z,0
2017-06-17T07:39:21.522Z,0
2017-06-17T07:40:24.484Z,0
2017-06-17T07:41:26.846Z,0
2017-06-17T07:42:29.214Z,0
2017-06-17T07:43:31.563Z,0
2017-06-17T07:44:34.143Z,0
2017-06-17T07:45:37.108Z,0
2017-06-17T07:46:39.466Z,0
2017-06-17T07:47:41.827Z,0
2017-06-17T07:48:44.199Z,0
2017-06-17T07:49:46.549Z,0
2017-06-17T07:50:49.507Z,0
2017-06-17T07:51:51.872Z,0
2017-06-17T07:52:54.248Z,0
2017-06-17T07:53:56.601Z,0
2017-06-17T07:54:58.969Z,0
2017-06-17T07:56:01.943Z,0
2017-06-17T07:57:04.297Z,0
2017-06-17T07:58:06.662Z,0
2017-06-17T07:59:09.021Z,0
2017-06-17T08:00:11.379Z,0
2017-06-17T08:01:14.347Z,0
2017-06-17T08:02:16.722Z,0
2017-06-17T08:03:19.082Z,0
2017-06-17T08:04:21.449Z,0
2017-06-17T08:05:23.795Z,0
2017-06-17T08:06:26.762Z,0
2017-06-17T08:07:29.123Z,0
2017-06-17T08:08:31.479Z,0
2017-06-17T08:09:33.850Z,0
2017-06-17T08:10:36.198Z,0
2017-06-17T08:11:39.169Z,0
2017-06-17T08:12:41.522Z,0
2017-06-17T08:13:43.878Z,0
2017-06-17T08:14:46.238Z,0
2017-06-17T08:15:48.608Z,0
2017-06-17T08:16:51.567Z,0
2017-06-17T08:17:53.927Z,0
2017-06-17T08:18:56.387Z,0
2017-06-17T08:19:58.750Z,0
2017-06-17T08:21:01.104Z,0
2017-06-17T08:22:04.069Z,0
2017-06-17T08:23:06.428Z,0
2017-06-17T08:24:08.789Z,0
2017-06-17T08:25:11.146Z,0
2017-06-17T08:26:13.507Z,0
2017-06-17T08:27:16.478Z,0
2017-06-17T08:28:18.850Z,0
2017-06-17T08:29:21.206Z,0
2017-06-17T08:30:23.578Z,0
2017-06-17T08:31:25.946Z,0
2017-06-17T08:32:28.914Z,0
2017-06-17T08:33:31.270Z,0
2017-06-17T08:34:33.634Z,0
2017-06-17T08:35:35.995Z,0
2017-06-17T08:36:38.346Z,0
2017-06-17T08:37:41.307Z,0
2017-06-17T08:38:43.667Z,0
2017-06-17T08:39:46.029Z,0
2017-06-17T08:40:48.389Z,0
2017-06-17T08:41:50.746Z,0
2017-06-17T08:42:53.713Z,0
2017-06-17T08:43:56.073Z,0
2017-06-17T08:44:58.433Z,0
2017-06-17T08:46:00.796Z,0
2017-06-17T08:47:03.154Z,0
2017-06-17T08:48:06.113Z,0
2017-06-17T08:49:08.467Z,0
2017-06-17T08:50:10.823Z,0
2017-06-17T08:51:13.185Z,0
2017-06-17T08:52:15.544Z,0
2017-06-17T08:53:18.502Z,0
2017-06-17T08:54:20.871Z,0
2017-06-17T08:55:23.235Z,0
2017-06-17T08:56:25.597Z,0
2017-06-17T08:57:27.957Z,0
2017-06-17T08:58:30.916Z,0
2017-06-17T08:59:33.282Z,0
2017-06-17T09:00:35.635Z,0
2017-06-17T09:01:37.997Z,0
2017-06-17T09:02:40.355Z,0
2017-06-17T09:03:43.322Z,0
2017-06-17T09:04:45.684Z,0
2017-06-17T09:05:48.042Z,0
2017-06-17T09:06:50.402Z,0
2017-06-17T09:07:52.762Z,0
2017-06-17T09:08:55.737Z,0
2017-06-17T09:09:58.095Z,0
2017-06-17T09:11:00.466Z,0
2017-06-17T09:12:02.823Z,0
2017-06-17T09:13:05.180Z,0
2017-06-17T09:14:08.141Z,0
2017-06-17T09:15:10.515Z,0
2017-06-17T09:16:12.867Z,0
2017-06-17T09:17:15.232Z,0
2017-06-17T09:18:17.593Z,0
2017-06-17T09:19:20.549Z,0
2017-06-17T09:20:22.912Z,0
2017-06-17T09:21:25.264Z,0
2017-06-17T09:22:27.618Z,0
2017-06-17T09:23:29.973Z,0
2017-06-17T09:24:32.940Z,0
2017-06-17T09:25:35.303Z,0
2017-06-17T09:26:37.659Z,0
2017-06-17T09:27:40.023Z,0
2017-06-17T09:28:42.385Z,0
2017-06-17T09:29:45.345Z,0
2017-06-17T09:30:47.694Z,0
2017-06-17T09:31:50.051Z,0
2017-06-17T09:32:52.409Z,0
2017-06-17T09:33:54.770Z,0
2017-06-17T09:34:57.753Z,0
2017-06-17T09:36:00.097Z,0
2017-06-17T09:37:02.459Z,0
2017-06-17T09:38:04.819Z,0
2017-06-17T09:39:07.184Z,0
2017-06-17T09:40:10.146Z,0
2017-06-17T09:41:12.521Z,0
2017-06-17T09:42:14.868Z,0
2017-06-17T09:43:17.233Z,0
2017-06-17T09:44:19.598Z,0
2017-06-17T09:45:22.562Z,0
2017-06-17T09:46:24.918Z,0
2017-06-17T09:47:27.275Z,0
2017-06-17T09:48:29.635Z,0
2017-06-17T09:49:31.997Z,0
2017-06-17T09:50:34.965Z,0
2017-06-17T09:51:37.319Z,0
2017-06-17T09:52:39.681Z,0
2017-06-17T09:53:42.043Z,0
2017-06-17T09:54:44.405Z,0
2017-06-17T09:55:47.370Z,0
2017-06-17T09:56:49.728Z,0
2017-06-17T09:57:52.087Z,0
2017-06-17T09:58:54.455Z,0
2017-06-17T09:59:56.821Z,0
2017-06-17T10:00:59.785Z,0
2017-06-17T10:02:02.140Z,0
2017-06-17T10:03:04.511Z,0
2017-06-17T10:04:06.878Z,0
2017-06-17T10:05:09.232Z,0
2017-06-17T10:06:12.198Z,0
2017-06-17T10:07:14.548Z,0
2017-06-17T10:08:16.915Z,0
2017-06-17T10:09:19.268Z,0
2017-06-17T10:10:21.633Z,0
2017-06-17T10:11:24.592Z,0
2017-06-17T10:12:26.950Z,0
2017-06-17T10:13:29.314Z,0
2017-06-17T10:14:31.670Z,0
2017-06-17T10:15:34.036Z,0
2017-06-17T10:16:36.988Z,0
2017-06-17T10:17:39.350Z,0
2017-06-17T10:18:41.715Z,0
2017-06-17T10:19:44.070Z,0
2017-06-17T10:20:46.433Z,0
2017-06-17T10:21:49.396Z,0
2017-06-17T10:22:51.750Z,0
2017-06-17T10:23:54.109Z,0
2017-06-17T10:24:56.470Z,0
2017-06-17T10:25:58.835Z,0
2017-06-17T10:27:01.795Z,0
2017-06-17T10:28:04.150Z,0
2017-06-17T10:29:06.508Z,0
2017-06-17T10:30:08.870Z,0
2017-06-17T10:31:11.241Z,0
2017-06-17T10:32:14.199Z,0
2017-06-17T10:33:16.553Z,0
2017-06-17T10:34:18.918Z,0
2017-06-17T10:35:21.481Z,0
2017-06-17T10:36:23.842Z,0
2017-06-17T10:37:26.814Z,0
2017-06-17T10:38:29.161Z,0
2017-06-17T10:39:31.532Z,0
2017-06-17T10:40:33.891Z,0
2017-06-17T10:41:36.255Z,0
2017-06-17T10:42:39.219Z,0
2017-06-17T10:43:41.579Z,0
2017-06-17T10:44:43.930Z,0
2017-06-17T10:45:46.291Z,0
2017-06-17T10:46:48.647Z,0
2017-06-17T10:47:51.614Z,0
2017-06-17T10:48:53.965Z,0
2017-06-17T10:49:56.340Z,0
2017-06-17T10:50:58.698Z,0
2017-06-17T10:52:01.055Z,0
2017-06-17T10:53:04.020Z,0
2017-06-17T10:54:06.380Z,0
2017-06-17T10:55:08.740Z,0
2017-06-17T10:56:11.103Z,0
2017-06-17T10:57:13.461Z,0
2017-06-17T10:58:16.426Z,0
2017-06-17T10:59:18.785Z,0
2017-06-17T11:00:21.139Z,0
2017-06-17T11:01:23.502Z,0
2017-06-17T11:02:25.856Z,0
2017-06-17T11:03:28.818Z,0
2017-06-17T11:04:31.178Z,0
2017-06-17T11:05:33.544Z,0
2017-06-17T11:06:35.907Z,0
2017-06-17T11:07:38.264Z,0
2017-06-17T11:08:41.223Z,0
2017-06-17T11:09:43.586Z,0
2017-06-17T11:10:45.953Z,0
2017-06-17T11:11:48.307Z,0
2017-06-17T11:12:50.679Z,0
2017-06-17T11:13:53.639Z,0
2017-06-17T11:14:55.989Z,0
2017-06-17T11:15:58.346Z,0
2017-06-17T11:17:00.712Z,0
2017-06-17T11:18:03.074Z,0
2017-06-17T11:19:06.036Z,0
2017-06-17T11:20:08.380Z,0
2017-06-17T11:21:10.742Z,0
2017-06-17T11:22:13.100Z,0
2017-06-17T11:23:15.460Z,0
2017-06-17T11:24:18.424Z,0
2017-06-17T11:25:20.781Z,0
2017-06-17T11:26:23.148Z,0
2017-06-17T11:27:25.503Z,0
2017-06-17T11:28:27.868Z,0
2017-06-17T11:29:30.835Z,0
2017-06-17T11:30:33.196Z,0
2017-06-17T11:31:35.561Z,0
2017-06-17T11:32:37.918Z,0
2017-06-17T11:33:40.277Z,0
2017-06-17T11:34:43.240Z,0
2017-06-17T11:35:45.606Z,4
2017-06-17T11:36:47.974Z,4
2017-06-17T11:37:50.327Z,4
2017-06-17T11:38:52.692Z,4
2017-06-17T11:39:55.665Z,8
2017-06-17T11:40:58.020Z,8
2017-06-17T11:42:00.385Z,12
2017-06-17T11:43:02.956Z,20
2017-06-17T11:44:05.307Z,24
2017-06-17T11:45:08.269Z,32
2017-06-17T11:46:10.630Z,40
2017-06-17T11:47:12.989Z,52
2017-06-17T11:48:15.359Z,76
2017-06-17T11:49:17.714Z,92
2017-06-17T11:50:20.690Z,108
2017-06-17T11:51:23.051Z,124
2017-06-17T11:52:25.411Z,144
2017-06-17T11:53:27.767Z,172
2017-06-17T11:54:30.133Z,196
2017-06-17T11:55:33.105Z,228
2017-06-17T11:56:35.463Z,256
2017-06-17T11:57:37.830Z,292
2017-06-17T11:58:40.186Z,328
2017-06-17T11:59:42.558Z,380
2017-06-17T12:00:45.522Z,436
2017-06-17T12:01:47.878Z,492
2017-06-17T12:02:50.239Z,572
2017-06-17T12:03:52.599Z,676
2017-06-17T12:04:54.956Z,776
2017-06-17T12:05:57.916Z,896
2017-06-17T12:07:00.277Z,1004
2017-06-17T12:08:02.648Z,1076
2017-06-17T12:09:05.010Z,1252
2017-06-17T12:10:07.375Z,1304
2017-06-17T12:11:10.339Z,1448
2017-06-17T12:12:12.696Z,1520
2017-06-17T12:13:15.059Z,1528
2017-06-17T12:14:17.420Z,1628
2017-06-17T12:15:19.777Z,1788
2017-06-17T12:16:22.754Z,1892
2017-06-17T12:17:25.116Z,1900
2017-06-17T12:18:27.480Z,1844
2017-06-17T12:19:29.837Z,1788
2017-06-17T12:20:32.206Z,1780
2017-06-17T12:21:35.178Z,1700
2017-06-17T12:22:37.547Z,1772
2017-06-17T12:23:39.905Z,1852
2017-06-17T12:24:42.269Z,1952
2017-06-17T12:25:44.637Z,1944
2017-06-17T12:26:47.604Z,2164
2017-06-17T12:27:49.971Z,2348
2017-06-17T12:28:52.330Z,2668
2017-06-17T12:29:54.703Z,2860
2017-06-17T12:30:57.066Z,3120
2017-06-17T12:32:00.034Z,3124
2017-06-17T12:33:02.396Z,3296
2017-06-17T12:34:04.769Z,3588
2017-06-17T12:35:07.124Z,3936
2017-06-17T12:36:09.493Z,4232
2017-06-17T12:37:12.464Z,4456
2017-06-17T12:38:14.831Z,4688
2017-06-17T12:39:17.191Z,4916
2017-06-17T12:40:19.556Z,4796
2017-06-17T12:41:21.913Z,4960
2017-06-17T12:42:24.886Z,5024
2017-06-17T12:43:27.246Z,4976
2017-06-17T12:44:29.611Z,4928
2017-06-17T12:45:31.977Z,5412
2017-06-17T12:46:34.353Z,5284
2017-06-17T12:47:37.315Z,5564
2017-06-17T12:48:39.908Z,6096
2017-06-17T12:49:42.262Z,6400
2017-06-17T12:50:44.620Z,6536
2017-06-17T12:51:46.983Z,5688
2017-06-17T12:52:49.950Z,6272
2017-06-17T12:53:52.315Z,6572
2017-06-17T12:54:54.685Z,6488
2017-06-17T12:55:57.060Z,6204
2017-06-17T12:56:59.431Z,6036
2017-06-17T12:58:02.401Z,5620
2017-06-17T12:59:04.786Z,5996
2017-06-17T13:00:07.123Z,5888
2017-06-17T13:01:09.484Z,6812
2017-06-17T13:02:11.845Z,7988
2017-06-17T13:03:14.823Z,8340
2017-06-17T13:04:17.181Z,9028
2017-06-17T13:05:19.551Z,11596
2017-06-17T13:06:21.917Z,11232
2017-06-17T13:07:24.287Z,13188
2017-06-17T13:08:27.265Z,12616
2017-06-17T13:09:29.630Z,12188
2017-06-17T13:10:31.997Z,12948
2017-06-17T13:11:34.370Z,12876
2017-06-17T13:12:36.739Z,13940
2017-06-17T13:13:39.718Z,13556
2017-06-17T13:14:42.081Z,12544
2017-06-17T13:15:44.443Z,17056
2017-06-17T13:16:46.811Z,14104
2017-06-17T13:17:49.179Z,14140
2017-06-17T13:30:35.334Z,10284
2017-06-17T13:31:37.699Z,11800
2017-06-17T13:37:13.037Z,50728
2017-06-17T13:38:15.406Z,53508
2017-06-17T13:39:17.768Z,72096
2017-06-17T13:40:20.127Z,67636
2017-06-17T13:41:22.493Z,123648
2017-06-17T13:42:25.650Z,95232
2017-06-17T13:43:28.013Z,74784
2017-06-17T13:44:30.389Z,81248
2017-06-17T13:45:32.748Z,69468
2017-06-17T13:46:35.114Z,45228
2017-06-17T13:47:40.084Z,52556
2017-06-17T13:48:42.452Z,79104
2017-06-17T13:49:44.826Z,83232
2017-06-17T13:50:47.183Z,120384
2017-06-17T13:51:49.545Z,103328
2017-06-17T13:52:52.465Z,96800
2017-06-17T13:53:54.824Z,96704
2017-06-17T13:54:57.200Z,126560
2017-06-17T13:55:59.568Z,159552
2017-06-17T13:57:01.933Z,123744
2017-06-17T13:58:04.906Z,112160
2017-06-17T13:59:07.278Z,171456
2017-06-17T14:00:09.649Z,162272
2017-06-17T14:01:12.017Z,78016
2017-06-17T14:02:14.379Z,65780
2017-06-17T14:03:17.291Z,57944
2017-06-17T14:04:19.664Z,73728
2017-06-17T14:05:22.028Z,185440
2017-06-17T14:06:24.397Z,136512
2017-06-17T14:07:26.757Z,89408
2017-06-17T14:08:29.693Z,104288
2017-06-17T14:09:32.062Z,180928
2017-06-17T14:10:34.434Z,92192
2017-06-17T14:11:36.812Z,184096
2017-06-17T14:12:39.169Z,80608
2017-06-17T14:13:42.428Z,99040
2017-06-17T14:14:44.799Z,107712
2017-06-17T14:15:47.162Z,81888
2017-06-17T14:16:49.532Z,52292
2017-06-17T14:17:51.895Z,63720
2017-06-17T14:18:56.867Z,89248
2017-06-17T14:19:59.231Z,76576
2017-06-17T14:21:02.338Z,83936
2017-06-17T14:22:04.799Z,120544
2017-06-17T14:23:12.443Z,95360
2017-06-17T14:24:16.429Z,95104
2017-06-17T14:25:19.391Z,102848
2017-06-17T14:26:21.782Z,175168
2017-06-17T14:27:29.049Z,197600
2017-06-17T14:28:31.213Z,199008
2017-06-17T14:29:37.085Z,176608
2017-06-17T14:30:41.109Z,162688
2017-06-17T14:31:42.173Z,113952
2017-06-17T14:32:46.539Z,230016
2017-06-17T14:33:48.395Z,133760
2017-06-17T14:34:53.209Z,120896
2017-06-17T14:35:55.591Z,222624
2017-06-17T14:36:57.950Z,137408
2017-06-17T14:38:00.315Z,223264
2017-06-17T14:39:02.690Z,131680
2017-06-17T14:40:05.677Z,141024
2017-06-17T14:41:08.046Z,103648
2017-06-17T14:42:10.417Z,75648
2017-06-17T14:43:12.784Z,243712
2017-06-17T14:44:15.155Z,76032
2017-06-17T14:45:18.126Z,262140
2017-06-17T14:46:20.511Z,262140
2017-06-17T14:47:22.878Z,171104
2017-06-17T14:48:25.372Z,262140
2017-06-17T14:49:27.745Z,253760
2017-06-17T14:50:32.615Z,199264
2017-06-17T14:51:34.984Z,257728
2017-06-17T14:52:37.346Z,229888
2017-06-17T14:53:39.716Z,198144
2017-06-17T14:54:42.087Z,258240
2017-06-17T14:55:45.053Z,262140
2017-06-17T14:56:47.435Z,262140
2017-06-17T14:57:49.798Z,248448
2017-06-17T14:58:52.168Z,221568
2017-06-17T14:59:54.540Z,49052
2017-06-17T15:00:57.511Z,61736
2017-06-17T15:01:59.876Z,262140
2017-06-17T15:03:02.252Z,151296
2017-06-17T15:04:04.627Z,262140
2017-06-17T15:05:06.996Z,121664
2017-06-17T15:06:09.974Z,262140
2017-06-17T15:07:12.339Z,207520
2017-06-17T15:08:14.718Z,184128
2017-06-17T15:09:17.086Z,170880
2017-06-17T15:10:19.462Z,215712
2017-06-17T15:11:22.443Z,235296
2017-06-17T15:12:24.813Z,96960
2017-06-17T15:13:27.180Z,222624